Berens River Airport


Codes: CYBV/YBV
Name: Berens River Airport
City: Berens River
Country: Canada
Elevation: 728 ft.
Wikipedia:

Photos at Berens River Airport


   Photos courtesy of SpottingLog. You can add your own sightings and photos by signing up for a free trial today.



No photos found.

Weather at Berens River Airport


Time (UTC)DescriptionTempratureWindCloud coverageVisibilityPressureHumidity
19-Apr-2024 03:00Light Snow-1°C9 mph, NW100%592m1010hPa97%
19-Apr-2024 06:00Light Snow-1°C11 mph, N100%694m1010hPa96%
19-Apr-2024 09:00Light Snow-2°C13 mph, N100%96m1011hPa96%
19-Apr-2024 12:00Light Snow-4°C16 mph, N100%416m1013hPa92%
19-Apr-2024 15:00Light Snow-3°C18 mph, N100%6733m1015hPa83%
19-Apr-2024 18:00Light Snow-1°C18 mph, N100%4003m1017hPa82%
19-Apr-2024 21:00Light Snow1°C18 mph, N100%5923m1018hPa80%
20-Apr-2024 00:00Light Snow-0°C16 mph, N100%10000m1021hPa78%
20-Apr-2024 03:00Broken Clouds-3°C11 mph, NW71%10000m1023hPa87%
20-Apr-2024 06:00Scattered Clouds-4°C9 mph, NW45%10000m1024hPa94%
20-Apr-2024 09:00Few Clouds-4°C9 mph, W23%10000m1023hPa96%
20-Apr-2024 12:00Broken Clouds-4°C11 mph, W53%10000m1022hPa96%
20-Apr-2024 15:00Overcast Clouds-0°C16 mph, W100%10000m1021hPa85%
20-Apr-2024 18:00Overcast Clouds2°C16 mph, NW100%10000m1020hPa74%
20-Apr-2024 21:00Overcast Clouds3°C13 mph, NW99%10000m1020hPa75%
21-Apr-2024 00:00Overcast Clouds2°C9 mph, NW97%10000m1019hPa85%
21-Apr-2024 03:00Overcast Clouds0°C4 mph, N99%0m1018hPa99%
21-Apr-2024 06:00Light Snow0°C4 mph, NW99%638m1017hPa99%
21-Apr-2024 09:00Light Snow-0°C7 mph, NW100%162m1017hPa99%
21-Apr-2024 12:00Light Snow-3°C11 mph, NE100%646m1019hPa92%
21-Apr-2024 15:00Light Snow-2°C9 mph, NE99%10000m1020hPa66%
21-Apr-2024 18:00Broken Clouds1°C4 mph, N81%10000m1020hPa47%
21-Apr-2024 21:00Clear Sky2°C7 mph, NW9%10000m1019hPa51%
22-Apr-2024 00:00Clear Sky-0°C4 mph, NW9%10000m1018hPa66%
22-Apr-2024 03:00Few Clouds-4°C7 mph, NE14%10000m1018hPa86%
22-Apr-2024 06:00Few Clouds-5°C7 mph, E14%10000m1017hPa85%
22-Apr-2024 09:00Broken Clouds-6°C9 mph, E53%10000m1017hPa86%
22-Apr-2024 12:00Broken Clouds-6°C9 mph, NE78%10000m1017hPa83%
22-Apr-2024 15:00Overcast Clouds-1°C11 mph, NE100%10000m1017hPa56%
22-Apr-2024 18:00Overcast Clouds3°C11 mph, NE94%10000m1016hPa41%
22-Apr-2024 21:00Few Clouds4°C11 mph, NE15%10000m1016hPa39%
23-Apr-2024 00:00Few Clouds2°C11 mph, NE11%10000m1018hPa53%
23-Apr-2024 03:00Clear Sky-4°C9 mph, NE7%10000m1021hPa77%
23-Apr-2024 06:00Clear Sky-5°C9 mph, NE6%10000m1023hPa82%
23-Apr-2024 09:00Clear Sky-7°C7 mph, NE6%10000m1025hPa82%
23-Apr-2024 12:00Clear Sky-7°C4 mph, NE10%10000m1027hPa80%
23-Apr-2024 15:00Few Clouds-2°C4 mph, NE18%10000m1028hPa47%
23-Apr-2024 18:00Few Clouds3°C4 mph, W16%10000m1028hPa39%
23-Apr-2024 21:00Scattered Clouds1°C9 mph, W44%10000m1028hPa51%
24-Apr-2024 00:00Broken Clouds-0°C2 mph, W70%10000m1027hPa59%